createdAt,value
2019-03-17T00:01:22.754Z,8.83
2019-03-17T00:04:11.723Z,9.33
2019-03-17T00:07:01.847Z,10.03
2019-03-17T00:09:51.669Z,9.57
2019-03-17T00:12:40.708Z,9.30
2019-03-17T00:15:29.954Z,9.10
2019-03-17T00:18:19.594Z,9.57
2019-03-17T00:21:09.336Z,9.20
2019-03-17T00:23:58.748Z,8.90
2019-03-17T00:26:48.475Z,9.03
2019-03-17T00:29:38.269Z,9.40
2019-03-17T00:32:27.264Z,9.43
2019-03-17T00:35:16.043Z,9.47
2019-03-17T00:38:05.919Z,9.37
2019-03-17T00:40:54.516Z,9.73
2019-03-17T00:43:43.672Z,9.20
2019-03-17T00:46:33.402Z,9.83
2019-03-17T00:49:22.106Z,9.30
2019-03-17T00:52:11.820Z,9.40
2019-03-17T00:55:01.556Z,9.50
2019-03-17T00:57:51.559Z,9.07
2019-03-17T01:00:42.870Z,9.20
2019-03-17T01:03:33.778Z,9.60
2019-03-17T01:06:23.939Z,7.80
2019-03-17T01:09:13.487Z,9.87
2019-03-17T01:12:02.166Z,9.43
2019-03-17T01:14:52.812Z,9.30
2019-03-17T01:17:42.799Z,7.78
2019-03-17T01:20:34.479Z,10.00
2019-03-17T01:23:23.517Z,9.30
2019-03-17T01:26:13.166Z,9.83
2019-03-17T01:29:01.931Z,9.70
2019-03-17T01:31:51.499Z,9.20
2019-03-17T01:34:41.232Z,9.20
2019-03-17T01:37:30.762Z,9.50
2019-03-17T01:40:19.771Z,9.10
2019-03-17T01:43:08.804Z,9.10
2019-03-17T01:45:57.556Z,9.30
2019-03-17T01:48:47.105Z,9.23
2019-03-17T01:51:36.599Z,9.60
2019-03-17T01:54:25.288Z,9.80
2019-03-17T01:57:14.888Z,9.57
2019-03-17T02:00:04.926Z,9.53
2019-03-17T02:02:53.795Z,9.10
2019-03-17T02:05:43.654Z,8.90
2019-03-17T02:08:33.441Z,9.60
2019-03-17T02:11:22.997Z,9.33
2019-03-17T02:14:12.928Z,9.33
2019-03-17T02:17:02.586Z,9.60
2019-03-17T02:19:51.443Z,9.53
2019-03-17T02:22:41.193Z,9.37
2019-03-17T02:25:31.619Z,9.27
2019-03-17T02:28:22.078Z,8.93
2019-03-17T02:31:11.952Z,9.60
2019-03-17T02:34:01.763Z,9.00
2019-03-17T02:36:51.518Z,9.37
2019-03-17T02:39:41.321Z,9.07
2019-03-17T02:42:31.120Z,9.53
2019-03-17T02:45:20.907Z,9.13
2019-03-17T02:48:10.633Z,9.20
2019-03-17T02:51:00.482Z,9.30
2019-03-17T02:53:49.488Z,9.10
2019-03-17T02:56:39.121Z,9.37
2019-03-17T02:59:28.733Z,9.00
2019-03-17T03:02:18.466Z,9.07
2019-03-17T03:05:07.872Z,9.20
2019-03-17T03:07:57.348Z,8.97
2019-03-17T03:10:46.439Z,9.00
2019-03-17T03:13:35.970Z,8.80
2019-03-17T03:16:24.927Z,8.70
2019-03-17T03:19:14.396Z,9.03
2019-03-17T03:22:04.033Z,8.90
2019-03-17T03:24:54.555Z,9.03
2019-03-17T03:27:44.100Z,9.20
2019-03-17T03:30:33.728Z,8.87
2019-03-17T03:33:23.222Z,8.83
2019-03-17T03:36:13.252Z,9.10
2019-03-17T03:39:04.591Z,8.80
2019-03-17T03:41:54.140Z,9.00
2019-03-17T03:44:42.852Z,8.80
2019-03-17T03:47:32.491Z,9.03
2019-03-17T03:50:22.089Z,9.20
2019-03-17T03:53:11.775Z,9.20
2019-03-17T03:56:01.481Z,9.17
2019-03-17T03:58:50.253Z,9.37
2019-03-17T04:01:39.831Z,9.73
2019-03-17T04:04:29.284Z,10.10
2019-03-17T04:07:18.973Z,10.00
2019-03-17T04:10:08.475Z,9.40
2019-03-17T04:12:57.851Z,8.97
2019-03-17T04:15:47.734Z,9.27
2019-03-17T04:18:37.587Z,8.90
2019-03-17T04:21:26.952Z,8.87
2019-03-17T04:24:16.151Z,8.97
2019-03-17T04:27:05.263Z,8.87
2019-03-17T04:29:54.855Z,9.00
2019-03-17T04:32:43.902Z,9.27
2019-03-17T04:35:33.352Z,10.30
2019-03-17T04:38:22.093Z,10.30
2019-03-17T04:41:11.873Z,10.03
2019-03-17T04:44:01.402Z,9.60
2019-03-17T04:46:50.952Z,9.30
2019-03-17T04:49:40.255Z,8.97
2019-03-17T04:52:29.819Z,8.90
2019-03-17T04:55:18.536Z,9.13
2019-03-17T04:58:07.871Z,9.03
2019-03-17T05:00:56.490Z,9.23
2019-03-17T05:03:45.083Z,9.47
2019-03-17T05:06:34.701Z,9.20
2019-03-17T05:09:24.435Z,9.00
2019-03-17T05:12:13.912Z,8.93
2019-03-17T05:15:02.770Z,8.97
2019-03-17T05:17:52.496Z,9.40
2019-03-17T05:20:41.303Z,8.93
2019-03-17T05:23:30.971Z,8.97
2019-03-17T05:26:19.975Z,9.20
2019-03-17T05:29:09.587Z,8.60
2019-03-17T05:31:59.234Z,9.50
2019-03-17T05:34:48.864Z,9.03
2019-03-17T05:37:38.319Z,8.90
2019-03-17T05:40:27.822Z,9.27
2019-03-17T05:43:17.691Z,8.80
2019-03-17T05:46:07.416Z,9.33
2019-03-17T05:48:56.767Z,9.03
2019-03-17T05:51:46.285Z,9.00
2019-03-17T05:54:35.466Z,8.80
2019-03-17T05:57:24.602Z,9.07
2019-03-17T06:00:15.685Z,8.90
2019-03-17T06:03:05.524Z,9.07
2019-03-17T06:05:55.254Z,9.30
2019-03-17T06:08:44.559Z,9.23
2019-03-17T06:11:33.238Z,9.60
2019-03-17T06:14:22.128Z,9.47
2019-03-17T06:17:11.747Z,9.40
2019-03-17T06:20:01.360Z,9.23
2019-03-17T06:22:51.042Z,9.17
2019-03-17T06:25:40.437Z,9.43
2019-03-17T06:28:30.151Z,9.20
2019-03-17T06:31:19.907Z,9.17
2019-03-17T06:34:09.668Z,9.37
2019-03-17T06:36:59.494Z,9.10
2019-03-17T06:39:49.543Z,9.67
2019-03-17T06:42:39.341Z,9.60
2019-03-17T06:45:28.756Z,9.23
2019-03-17T06:48:18.346Z,8.43
2019-03-17T06:51:08.238Z,9.23
2019-03-17T06:53:58.063Z,9.30
2019-03-17T06:56:47.059Z,8.97
2019-03-17T06:59:36.589Z,9.00
2019-03-17T07:02:25.723Z,8.90
2019-03-17T07:05:16.107Z,8.80
2019-03-17T07:08:05.715Z,9.23
2019-03-17T07:10:55.503Z,8.87
2019-03-17T07:13:45.270Z,8.60
2019-03-17T07:16:35.876Z,8.80
2019-03-17T07:19:25.631Z,8.70
2019-03-17T07:22:15.544Z,9.10
2019-03-17T07:25:04.876Z,9.03
2019-03-17T07:27:54.568Z,8.60
2019-03-17T07:30:43.922Z,8.90
2019-03-17T07:33:32.923Z,8.47
2019-03-17T07:36:22.332Z,8.40
2019-03-17T07:39:12.382Z,8.90
2019-03-17T07:42:01.589Z,8.77
2019-03-17T07:44:51.425Z,8.60
2019-03-17T07:47:41.129Z,9.07
2019-03-17T07:50:29.840Z,9.10
2019-03-17T07:53:19.332Z,8.30
2019-03-17T07:56:08.896Z,8.40
2019-03-17T07:58:58.102Z,8.80
2019-03-17T08:01:48.556Z,8.70
2019-03-17T08:04:43.084Z,8.83
2019-03-17T08:07:28.855Z,8.63
2019-03-17T08:10:17.840Z,8.70
2019-03-17T08:13:07.628Z,8.30
2019-03-17T08:15:57.461Z,8.60
2019-03-17T08:18:46.950Z,8.73
2019-03-17T08:21:35.793Z,8.30
2019-03-17T08:24:24.446Z,8.80
2019-03-17T08:27:13.282Z,8.60
2019-03-17T08:30:02.932Z,8.47
2019-03-17T08:32:52.988Z,8.77
2019-03-17T08:35:42.563Z,8.20
2019-03-17T08:38:32.422Z,8.10
2019-03-17T08:41:21.990Z,8.60
2019-03-17T08:44:11.049Z,8.70
2019-03-17T08:47:01.707Z,8.50
2019-03-17T08:49:50.434Z,8.60
2019-03-17T08:52:39.180Z,8.20
2019-03-17T08:55:28.970Z,8.60
2019-03-17T08:58:18.835Z,8.40
2019-03-17T09:01:07.490Z,8.33
2019-03-17T09:03:56.544Z,8.47
2019-03-17T09:06:45.984Z,8.40
2019-03-17T09:09:35.038Z,8.50
2019-03-17T09:12:24.763Z,8.60
2019-03-17T09:15:14.403Z,8.60
2019-03-17T09:18:04.230Z,8.30
2019-03-17T09:20:53.232Z,8.40
2019-03-17T09:23:42.837Z,8.40
2019-03-17T09:26:32.856Z,8.47
2019-03-17T09:29:22.621Z,8.13
2019-03-17T09:32:11.468Z,8.30
2019-03-17T09:35:01.233Z,8.47
2019-03-17T09:37:51.055Z,8.37
2019-03-17T09:40:40.714Z,8.60
2019-03-17T09:43:30.524Z,8.17
2019-03-17T09:46:19.619Z,8.20
2019-03-17T09:49:09.026Z,8.27
2019-03-17T09:51:58.322Z,8.57
2019-03-17T09:54:47.264Z,8.60
2019-03-17T09:57:36.108Z,8.40
2019-03-17T10:00:25.615Z,8.20
2019-03-17T10:03:15.390Z,8.10
2019-03-17T10:06:05.247Z,8.10
2019-03-17T10:08:59.860Z,8.33
2019-03-17T10:11:45.916Z,8.27
2019-03-17T10:14:35.544Z,8.03
2019-03-17T10:17:25.389Z,8.50
2019-03-17T10:20:15.726Z,8.27
2019-03-17T10:23:05.177Z,8.83
2019-03-17T10:25:54.316Z,8.27
2019-03-17T10:28:44.747Z,8.00
2019-03-17T10:31:34.143Z,8.50
2019-03-17T10:34:23.741Z,8.43
2019-03-17T10:37:13.208Z,8.43
2019-03-17T10:40:02.594Z,8.23
2019-03-17T10:42:52.622Z,8.43
2019-03-17T10:45:42.172Z,8.70
2019-03-17T10:48:31.132Z,8.40
2019-03-17T10:51:20.954Z,8.20
2019-03-17T10:54:09.910Z,8.50
2019-03-17T10:56:58.627Z,8.50
2019-03-17T10:59:48.007Z,8.30
2019-03-17T11:02:37.518Z,8.23
2019-03-17T11:05:26.920Z,8.70
2019-03-17T11:08:15.899Z,8.33
2019-03-17T11:11:04.727Z,8.20
2019-03-17T11:13:53.438Z,9.07
2019-03-17T11:16:42.443Z,8.60
2019-03-17T11:19:31.412Z,8.80
2019-03-17T11:22:20.680Z,8.70
2019-03-17T11:25:10.880Z,9.10
2019-03-17T11:28:00.485Z,8.90
2019-03-17T11:30:58.801Z,8.80
2019-03-17T11:33:47.877Z,9.37
2019-03-17T11:36:37.506Z,9.50
2019-03-17T11:39:37.279Z,8.73
2019-03-17T11:42:17.445Z,9.00
2019-03-17T11:45:09.040Z,9.50
2019-03-17T11:47:57.966Z,9.00
2019-03-17T11:50:47.276Z,9.70
2019-03-17T11:53:36.332Z,9.67
2019-03-17T11:56:26.098Z,9.77
2019-03-17T11:59:15.738Z,9.30
2019-03-17T12:02:04.769Z,9.63
2019-03-17T12:04:53.525Z,9.47
2019-03-17T12:07:42.217Z,10.30
2019-03-17T12:10:32.073Z,9.70
2019-03-17T12:13:21.827Z,10.30
2019-03-17T12:16:11.418Z,9.50
2019-03-17T12:19:01.314Z,10.40
2019-03-17T12:21:50.588Z,10.13
2019-03-17T12:24:40.399Z,10.00
2019-03-17T12:27:31.283Z,10.87
2019-03-17T12:30:21.951Z,10.17
2019-03-17T12:33:11.823Z,10.60
2019-03-17T12:36:01.418Z,9.67
2019-03-17T12:38:50.681Z,10.17
2019-03-17T12:41:39.547Z,10.30
2019-03-17T12:44:28.570Z,10.20
2019-03-17T12:47:17.430Z,10.13
2019-03-17T12:50:07.347Z,10.13
2019-03-17T12:52:57.131Z,9.30
2019-03-17T12:55:47.030Z,9.77
2019-03-17T12:58:36.775Z,9.90
2019-03-17T13:01:26.331Z,9.73
2019-03-17T13:04:15.076Z,10.30
2019-03-17T13:07:04.990Z,9.63
2019-03-17T13:09:54.287Z,10.17
2019-03-17T13:12:43.519Z,9.33
2019-03-17T13:15:35.756Z,9.60
2019-03-17T13:18:24.450Z,9.43
2019-03-17T13:21:13.875Z,10.40
2019-03-17T13:24:04.343Z,9.70
2019-03-17T13:26:53.815Z,9.43
2019-03-17T13:29:43.283Z,10.00
2019-03-17T13:32:32.419Z,9.57
2019-03-17T13:35:21.499Z,9.60
2019-03-17T13:38:10.408Z,9.70
2019-03-17T13:40:59.256Z,10.20
2019-03-17T13:43:47.943Z,9.97
2019-03-17T13:46:36.962Z,9.80
2019-03-17T13:49:26.516Z,9.60
2019-03-17T13:52:16.315Z,9.70
2019-03-17T13:55:06.521Z,9.77
2019-03-17T13:57:56.468Z,9.50
2019-03-17T14:00:46.010Z,10.03
2019-03-17T14:03:35.555Z,9.53
2019-03-17T14:06:25.244Z,9.70
2019-03-17T14:09:16.196Z,9.63
2019-03-17T14:12:05.356Z,9.53
2019-03-17T14:14:54.377Z,9.37
2019-03-17T14:17:44.322Z,10.10
2019-03-17T14:20:34.436Z,9.43
2019-03-17T14:23:23.816Z,9.93
2019-03-17T14:26:12.670Z,9.60
2019-03-17T14:29:02.542Z,10.10
2019-03-17T14:31:51.496Z,9.90
2019-03-17T14:34:41.916Z,9.77
2019-03-17T14:37:30.761Z,9.60
2019-03-17T14:40:20.348Z,9.60
2019-03-17T14:43:10.059Z,9.20
2019-03-17T14:45:58.871Z,9.53
2019-03-17T14:48:47.652Z,9.43
2019-03-17T14:51:37.016Z,9.70
2019-03-17T14:54:27.030Z,9.37
2019-03-17T14:57:16.015Z,9.60
2019-03-17T15:00:07.570Z,9.80
2019-03-17T15:02:56.556Z,9.53
2019-03-17T15:05:45.747Z,9.43
2019-03-17T15:08:35.091Z,9.93
2019-03-17T15:11:24.078Z,9.40
2019-03-17T15:14:13.606Z,9.50
2019-03-17T15:17:03.067Z,9.63
2019-03-17T15:19:52.824Z,9.97
2019-03-17T15:22:43.225Z,9.27
2019-03-17T15:25:32.336Z,9.40
2019-03-17T15:28:21.916Z,9.47
2019-03-17T15:31:12.452Z,8.97
2019-03-17T15:34:01.684Z,9.10
2019-03-17T15:36:50.697Z,9.13
2019-03-17T15:39:39.434Z,8.97
2019-03-17T15:42:29.252Z,9.27
2019-03-17T15:45:18.820Z,9.03
2019-03-17T15:48:08.589Z,8.70
2019-03-17T15:50:58.191Z,9.00
2019-03-17T15:53:47.634Z,9.10
2019-03-17T15:56:37.033Z,8.77
2019-03-17T15:59:26.669Z,9.20
2019-03-17T16:02:16.585Z,9.30
2019-03-17T16:05:06.467Z,9.20
2019-03-17T16:07:56.084Z,8.80
2019-03-17T16:10:44.987Z,9.47
2019-03-17T16:13:33.982Z,9.37
2019-03-17T16:16:23.440Z,9.10
2019-03-17T16:19:13.111Z,9.00
2019-03-17T16:22:03.005Z,9.17
2019-03-17T16:24:51.734Z,9.43
2019-03-17T16:27:41.736Z,9.10
2019-03-17T16:30:30.896Z,8.90
2019-03-17T16:33:20.553Z,8.97
2019-03-17T16:36:09.818Z,9.10
2019-03-17T16:39:00.667Z,9.37
2019-03-17T16:41:51.386Z,9.10
2019-03-17T16:44:41.263Z,9.20
2019-03-17T16:47:30.828Z,9.10
2019-03-17T16:50:19.950Z,9.40
2019-03-17T16:53:08.783Z,8.97
2019-03-17T16:55:58.403Z,8.97
2019-03-17T16:58:48.007Z,9.50
2019-03-17T17:01:37.678Z,9.43
2019-03-17T17:04:27.268Z,9.00
2019-03-17T17:07:16.751Z,9.40
2019-03-17T17:10:07.833Z,9.00
2019-03-17T17:12:57.424Z,9.57
2019-03-17T17:15:47.361Z,9.03
2019-03-17T17:18:36.267Z,9.10
2019-03-17T17:21:25.940Z,9.00
2019-03-17T17:24:15.813Z,9.17
2019-03-17T17:27:04.705Z,9.60
2019-03-17T17:29:54.491Z,9.60
2019-03-17T17:32:44.488Z,10.20
2019-03-17T17:35:34.176Z,9.97
2019-03-17T17:38:24.598Z,9.50
2019-03-17T17:41:13.897Z,9.90
2019-03-17T17:44:03.057Z,9.97
2019-03-17T17:46:52.818Z,9.27
2019-03-17T17:49:42.335Z,9.87
2019-03-17T17:52:32.686Z,9.70
2019-03-17T17:55:21.940Z,9.20
2019-03-17T17:58:10.873Z,9.40
2019-03-17T18:01:01.023Z,9.50
2019-03-17T18:03:51.732Z,9.43
2019-03-17T18:06:43.110Z,10.10
2019-03-17T18:09:33.079Z,10.00
2019-03-17T18:12:22.087Z,10.10
2019-03-17T18:15:14.819Z,9.63
2019-03-17T18:18:04.621Z,9.10
2019-03-17T18:20:53.795Z,9.53
2019-03-17T18:23:43.607Z,9.77
2019-03-17T18:26:32.587Z,9.33
2019-03-17T18:29:22.450Z,9.30
2019-03-17T18:32:11.976Z,9.20
2019-03-17T18:35:01.821Z,9.60
2019-03-17T18:37:51.648Z,10.20
2019-03-17T18:40:42.502Z,10.30
2019-03-17T18:43:31.526Z,9.33
2019-03-17T18:46:21.441Z,9.20
2019-03-17T18:49:11.150Z,9.77
2019-03-17T18:52:00.786Z,9.50
2019-03-17T18:54:49.984Z,9.90
2019-03-17T18:57:39.921Z,9.40
2019-03-17T19:00:29.703Z,9.33
2019-03-17T19:03:18.475Z,10.33
2019-03-17T19:06:07.572Z,10.20
2019-03-17T19:08:57.343Z,10.20
2019-03-17T19:11:46.180Z,9.60
2019-03-17T19:14:36.042Z,10.07
2019-03-17T19:17:24.831Z,9.73
2019-03-17T19:20:15.328Z,9.50
2019-03-17T19:23:04.404Z,9.33
2019-03-17T19:25:54.221Z,9.50
2019-03-17T19:28:43.659Z,9.63
2019-03-17T19:31:33.295Z,9.60
2019-03-17T19:34:22.564Z,10.23
2019-03-17T19:37:12.722Z,10.00
2019-03-17T19:40:02.491Z,9.23
2019-03-17T19:42:58.538Z,9.90
2019-03-17T19:45:42.622Z,9.20
2019-03-17T19:48:32.398Z,9.57
2019-03-17T19:51:22.675Z,9.50
2019-03-17T19:54:12.150Z,9.60
2019-03-17T19:57:02.093Z,9.73
2019-03-17T19:59:51.995Z,9.50
2019-03-17T20:02:41.833Z,9.30
2019-03-17T20:05:30.858Z,9.93
2019-03-17T20:08:20.689Z,9.67
2019-03-17T20:11:10.472Z,10.10
2019-03-17T20:13:59.682Z,9.47
2019-03-17T20:16:49.622Z,9.10
2019-03-17T20:19:39.403Z,9.43
2019-03-17T20:22:29.043Z,9.87
2019-03-17T20:25:18.850Z,9.87
2019-03-17T20:28:08.496Z,9.57
2019-03-17T20:30:57.687Z,9.23
2019-03-17T20:33:47.474Z,10.10
2019-03-17T20:36:37.017Z,10.33
2019-03-17T20:39:26.552Z,9.50
2019-03-17T20:42:16.228Z,9.47
2019-03-17T20:45:06.252Z,10.03
2019-03-17T20:47:56.452Z,9.80
2019-03-17T20:50:46.583Z,10.20
2019-03-17T20:53:36.023Z,9.43
2019-03-17T20:56:27.867Z,9.93
2019-03-17T20:59:17.607Z,9.80
2019-03-17T21:02:07.229Z,9.37
2019-03-17T21:04:57.102Z,9.47
2019-03-17T21:07:46.712Z,9.80
2019-03-17T21:10:36.588Z,9.33
2019-03-17T21:13:26.416Z,9.77
2019-03-17T21:16:15.498Z,9.97
2019-03-17T21:19:04.551Z,9.37
2019-03-17T21:21:54.348Z,9.27
2019-03-17T21:24:43.144Z,9.07
2019-03-17T21:27:32.511Z,9.90
2019-03-17T21:30:22.297Z,9.20
2019-03-17T21:33:12.190Z,9.60
2019-03-17T21:36:02.010Z,9.50
2019-03-17T21:38:51.535Z,9.17
2019-03-17T21:41:41.278Z,9.80
2019-03-17T21:44:32.108Z,9.30
2019-03-17T21:47:20.803Z,9.97
2019-03-17T21:50:12.951Z,10.07
2019-03-17T21:53:03.693Z,9.77
2019-03-17T21:55:54.259Z,9.50
2019-03-17T21:58:44.073Z,9.60
2019-03-17T22:01:33.984Z,9.33
2019-03-17T22:04:23.781Z,9.50
2019-03-17T22:07:12.561Z,9.13
2019-03-17T22:10:04.989Z,9.50
2019-03-17T22:12:56.815Z,9.63
2019-03-17T22:15:49.391Z,9.67
2019-03-17T22:18:42.038Z,9.57
2019-03-17T22:21:34.048Z,9.83
2019-03-17T22:24:26.066Z,10.20
2019-03-17T22:27:18.311Z,9.47
2019-03-17T22:30:10.285Z,9.23
2019-03-17T22:33:00.055Z,10.07
2019-03-17T22:35:50.109Z,9.57
2019-03-17T22:38:43.931Z,9.60
2019-03-17T22:41:36.796Z,9.50
2019-03-17T22:44:29.743Z,9.50
2019-03-17T22:47:18.566Z,9.50
2019-03-17T22:50:18.741Z,9.60
2019-03-17T22:53:10.949Z,9.40
2019-03-17T22:56:00.978Z,9.60
2019-03-17T22:58:50.220Z,9.57
2019-03-17T23:01:39.914Z,9.67
2019-03-17T23:04:29.426Z,9.70
2019-03-17T23:07:18.531Z,9.60
2019-03-17T23:10:12.700Z,9.60
2019-03-17T23:13:02.754Z,9.77
2019-03-17T23:15:54.819Z,9.50
2019-03-17T23:18:44.461Z,9.20
2019-03-17T23:21:36.903Z,9.50
2019-03-17T23:24:28.861Z,9.40
2019-03-17T23:27:20.322Z,9.90
2019-03-17T23:30:12.814Z,9.80
2019-03-17T23:33:04.958Z,9.77
2019-03-17T23:35:54.854Z,9.57
2019-03-17T23:38:44.485Z,9.60
2019-03-17T23:41:33.370Z,10.20
2019-03-17T23:44:25.192Z,9.53
2019-03-17T23:47:13.940Z,9.30
2019-03-17T23:50:03.278Z,9.70
2019-03-17T23:52:54.091Z,10.30
2019-03-17T23:55:43.032Z,10.30
2019-03-17T23:58:32.764Z,10.00
